sensor_id;sensor_type;location;lat;lon;timestamp;P1;durP1;ratioP1;P2;durP2;ratioP2
76103;SDS011;64831;44.870;37.336;2023-04-30T00:01:59;2.97;;;0.93;;
76103;SDS011;64831;44.870;37.336;2023-04-30T00:04:25;10.15;;;1.27;;
76103;SDS011;64831;44.870;37.336;2023-04-30T00:06:51;4.00;;;0.80;;
76103;SDS011;64831;44.870;37.336;2023-04-30T00:09:17;2.78;;;0.95;;
76103;SDS011;64831;44.870;37.336;2023-04-30T00:11:43;4.05;;;0.63;;
76103;SDS011;64831;44.870;37.336;2023-04-30T00:14:08;1.85;;;0.80;;
76103;SDS011;64831;44.870;37.336;2023-04-30T00:16:34;0.95;;;0.60;;
76103;SDS011;64831;44.870;37.336;2023-04-30T00:19:00;5.30;;;0.85;;
76103;SDS011;64831;44.870;37.336;2023-04-30T00:21:26;5.25;;;0.80;;
76103;SDS011;64831;44.870;37.336;2023-04-30T00:23:52;1.52;;;0.55;;
76103;SDS011;64831;44.870;37.336;2023-04-30T00:26:18;1.00;;;0.60;;
76103;SDS011;64831;44.870;37.336;2023-04-30T00:28:47;1.92;;;0.77;;
76103;SDS011;64831;44.870;37.336;2023-04-30T00:31:12;2.58;;;0.60;;
76103;SDS011;64831;44.870;37.336;2023-04-30T00:33:38;4.13;;;0.55;;
76103;SDS011;64831;44.870;37.336;2023-04-30T00:36:04;2.17;;;0.70;;
76103;SDS011;64831;44.870;37.336;2023-04-30T00:38:30;4.57;;;0.80;;
76103;SDS011;64831;44.870;37.336;2023-04-30T00:40:56;1.70;;;0.60;;
76103;SDS011;64831;44.870;37.336;2023-04-30T00:43:23;3.40;;;0.68;;
76103;SDS011;64831;44.870;37.336;2023-04-30T00:45:49;1.70;;;0.55;;
76103;SDS011;64831;44.870;37.336;2023-04-30T00:48:15;3.72;;;0.80;;
76103;SDS011;64831;44.870;37.336;2023-04-30T00:50:41;2.58;;;0.70;;
76103;SDS011;64831;44.870;37.336;2023-04-30T00:53:09;9.20;;;0.90;;
76103;SDS011;64831;44.870;37.336;2023-04-30T00:55:36;8.43;;;1.58;;
76103;SDS011;64831;44.870;37.336;2023-04-30T00:58:03;5.05;;;0.95;;
76103;SDS011;64831;44.870;37.336;2023-04-30T01:00:30;2.08;;;0.60;;
76103;SDS011;64831;44.870;37.336;2023-04-30T01:02:56;9.32;;;0.90;;
76103;SDS011;64831;44.870;37.336;2023-04-30T01:05:22;3.08;;;0.70;;
76103;SDS011;64831;44.870;37.336;2023-04-30T01:07:48;9.27;;;1.20;;
76103;SDS011;64831;44.870;37.336;2023-04-30T01:10:15;7.03;;;0.95;;
76103;SDS011;64831;44.870;37.336;2023-04-30T01:15:38;5.75;;;1.02;;
76103;SDS011;64831;44.870;37.336;2023-04-30T01:18:12;4.25;;;0.77;;
76103;SDS011;64831;44.870;37.336;2023-04-30T01:20:48;2.78;;;0.90;;
76103;SDS011;64831;44.870;37.336;2023-04-30T01:23:41;3.05;;;0.88;;
76103;SDS011;64831;44.870;37.336;2023-04-30T01:29:21;9.13;;;1.10;;
76103;SDS011;64831;44.870;37.336;2023-04-30T01:31:49;4.60;;;1.10;;
76103;SDS011;64831;44.870;37.336;2023-04-30T01:34:15;3.90;;;1.25;;
76103;SDS011;64831;44.870;37.336;2023-04-30T01:39:38;3.45;;;0.70;;
76103;SDS011;64831;44.870;37.336;2023-04-30T01:42:36;1.38;;;0.45;;
76103;SDS011;64831;44.870;37.336;2023-04-30T01:48:12;3.13;;;0.70;;
76103;SDS011;64831;44.870;37.336;2023-04-30T01:53:39;14.38;;;1.13;;
76103;SDS011;64831;44.870;37.336;2023-04-30T01:56:10;4.05;;;1.15;;
76103;SDS011;64831;44.870;37.336;2023-04-30T01:58:42;6.18;;;1.02;;
76103;SDS011;64831;44.870;37.336;2023-04-30T02:01:27;4.57;;;0.80;;
76103;SDS011;64831;44.870;37.336;2023-04-30T02:03:54;4.80;;;0.80;;
76103;SDS011;64831;44.870;37.336;2023-04-30T02:06:20;7.07;;;1.08;;
76103;SDS011;64831;44.870;37.336;2023-04-30T02:08:47;4.53;;;0.98;;
76103;SDS011;64831;44.870;37.336;2023-04-30T02:11:13;4.20;;;0.85;;
76103;SDS011;64831;44.870;37.336;2023-04-30T02:13:38;8.93;;;1.33;;
76103;SDS011;64831;44.870;37.336;2023-04-30T02:16:05;4.32;;;1.08;;
76103;SDS011;64831;44.870;37.336;2023-04-30T02:18:31;3.47;;;0.80;;
76103;SDS011;64831;44.870;37.336;2023-04-30T02:20:57;1.25;;;0.52;;
76103;SDS011;64831;44.870;37.336;2023-04-30T02:23:23;2.08;;;0.68;;
76103;SDS011;64831;44.870;37.336;2023-04-30T02:25:49;4.50;;;0.57;;
76103;SDS011;64831;44.870;37.336;2023-04-30T02:28:15;2.38;;;0.90;;
76103;SDS011;64831;44.870;37.336;2023-04-30T02:30:41;2.22;;;0.50;;
76103;SDS011;64831;44.870;37.336;2023-04-30T02:33:07;3.22;;;0.65;;
76103;SDS011;64831;44.870;37.336;2023-04-30T02:35:36;3.60;;;0.75;;
76103;SDS011;64831;44.870;37.336;2023-04-30T02:38:05;0.68;;;0.50;;
76103;SDS011;64831;44.870;37.336;2023-04-30T02:40:31;4.13;;;1.00;;
76103;SDS011;64831;44.870;37.336;2023-04-30T02:42:57;6.78;;;1.23;;
76103;SDS011;64831;44.870;37.336;2023-04-30T02:45:25;2.50;;;0.35;;
76103;SDS011;64831;44.870;37.336;2023-04-30T02:47:51;3.03;;;0.63;;
76103;SDS011;64831;44.870;37.336;2023-04-30T02:50:17;3.58;;;0.93;;
76103;SDS011;64831;44.870;37.336;2023-04-30T02:52:44;5.35;;;0.93;;
76103;SDS011;64831;44.870;37.336;2023-04-30T02:55:11;3.83;;;1.02;;
76103;SDS011;64831;44.870;37.336;2023-04-30T02:57:38;5.13;;;1.00;;
76103;SDS011;64831;44.870;37.336;2023-04-30T03:00:04;8.05;;;1.25;;
76103;SDS011;64831;44.870;37.336;2023-04-30T03:02:31;2.67;;;0.52;;
76103;SDS011;64831;44.870;37.336;2023-04-30T03:04:57;1.27;;;0.70;;
76103;SDS011;64831;44.870;37.336;2023-04-30T03:07:23;4.50;;;0.98;;
76103;SDS011;64831;44.870;37.336;2023-04-30T03:09:49;1.85;;;0.63;;
76103;SDS011;64831;44.870;37.336;2023-04-30T03:12:15;0.60;;;0.40;;
76103;SDS011;64831;44.870;37.336;2023-04-30T03:14:41;1.35;;;0.50;;
76103;SDS011;64831;44.870;37.336;2023-04-30T03:17:09;2.80;;;0.85;;
76103;SDS011;64831;44.870;37.336;2023-04-30T03:19:35;0.80;;;0.70;;
76103;SDS011;64831;44.870;37.336;2023-04-30T03:22:02;0.50;;;0.50;;
76103;SDS011;64831;44.870;37.336;2023-04-30T03:24:27;7.32;;;0.73;;
76103;SDS011;64831;44.870;37.336;2023-04-30T03:26:54;2.22;;;0.70;;
76103;SDS011;64831;44.870;37.336;2023-04-30T03:29:21;4.07;;;1.20;;
76103;SDS011;64831;44.870;37.336;2023-04-30T03:31:47;5.45;;;0.70;;
76103;SDS011;64831;44.870;37.336;2023-04-30T03:34:13;8.27;;;1.15;;
76103;SDS011;64831;44.870;37.336;2023-04-30T03:36:39;3.08;;;1.00;;
76103;SDS011;64831;44.870;37.336;2023-04-30T03:39:05;4.93;;;1.08;;
76103;SDS011;64831;44.870;37.336;2023-04-30T03:41:34;2.17;;;0.52;;
76103;SDS011;64831;44.870;37.336;2023-04-30T03:44:00;2.75;;;0.68;;
76103;SDS011;64831;44.870;37.336;2023-04-30T03:46:26;2.47;;;0.70;;
76103;SDS011;64831;44.870;37.336;2023-04-30T03:48:52;1.77;;;0.60;;
76103;SDS011;64831;44.870;37.336;2023-04-30T03:51:19;2.08;;;0.70;;
76103;SDS011;64831;44.870;37.336;2023-04-30T03:53:46;2.13;;;0.70;;
76103;SDS011;64831;44.870;37.336;2023-04-30T03:56:12;6.10;;;1.35;;
76103;SDS011;64831;44.870;37.336;2023-04-30T03:58:38;1.73;;;0.68;;
76103;SDS011;64831;44.870;37.336;2023-04-30T04:01:04;1.40;;;0.65;;
76103;SDS011;64831;44.870;37.336;2023-04-30T04:03:33;8.73;;;0.90;;
76103;SDS011;64831;44.870;37.336;2023-04-30T04:05:59;2.00;;;0.60;;
76103;SDS011;64831;44.870;37.336;2023-04-30T04:08:26;3.33;;;0.52;;
76103;SDS011;64831;44.870;37.336;2023-04-30T04:11:00;3.25;;;1.80;;
76103;SDS011;64831;44.870;37.336;2023-04-30T04:13:26;2.42;;;0.90;;
76103;SDS011;64831;44.870;37.336;2023-04-30T04:15:52;5.45;;;1.38;;
76103;SDS011;64831;44.870;37.336;2023-04-30T04:18:19;4.22;;;0.80;;
76103;SDS011;64831;44.870;37.336;2023-04-30T04:20:45;2.33;;;0.68;;
76103;SDS011;64831;44.870;37.336;2023-04-30T04:23:11;4.65;;;0.93;;
76103;SDS011;64831;44.870;37.336;2023-04-30T04:25:37;0.98;;;0.30;;
76103;SDS011;64831;44.870;37.336;2023-04-30T04:28:03;2.05;;;0.55;;
76103;SDS011;64831;44.870;37.336;2023-04-30T04:30:29;6.63;;;0.95;;
76103;SDS011;64831;44.870;37.336;2023-04-30T04:32:56;6.65;;;1.10;;
76103;SDS011;64831;44.870;37.336;2023-04-30T04:35:22;8.70;;;1.23;;
76103;SDS011;64831;44.870;37.336;2023-04-30T04:37:48;1.95;;;0.77;;
76103;SDS011;64831;44.870;37.336;2023-04-30T04:40:14;0.80;;;0.55;;
76103;SDS011;64831;44.870;37.336;2023-04-30T04:42:40;3.30;;;0.80;;
76103;SDS011;64831;44.870;37.336;2023-04-30T04:45:06;3.95;;;0.70;;
76103;SDS011;64831;44.870;37.336;2023-04-30T04:47:34;5.05;;;1.20;;
76103;SDS011;64831;44.870;37.336;2023-04-30T04:50:01;5.45;;;1.10;;
76103;SDS011;64831;44.870;37.336;2023-04-30T04:52:27;2.03;;;0.65;;
76103;SDS011;64831;44.870;37.336;2023-04-30T04:54:53;1.85;;;0.52;;
76103;SDS011;64831;44.870;37.336;2023-04-30T04:57:19;2.65;;;0.80;;
76103;SDS011;64831;44.870;37.336;2023-04-30T04:59:47;2.15;;;1.27;;
76103;SDS011;64831;44.870;37.336;2023-04-30T05:02:13;4.00;;;0.88;;
76103;SDS011;64831;44.870;37.336;2023-04-30T05:04:39;2.25;;;0.93;;
76103;SDS011;64831;44.870;37.336;2023-04-30T05:07:06;3.40;;;1.10;;
76103;SDS011;64831;44.870;37.336;2023-04-30T05:09:32;2.25;;;0.75;;
76103;SDS011;64831;44.870;37.336;2023-04-30T05:11:58;4.18;;;1.27;;
76103;SDS011;64831;44.870;37.336;2023-04-30T05:14:24;2.97;;;1.48;;
76103;SDS011;64831;44.870;37.336;2023-04-30T05:16:50;3.40;;;1.45;;
76103;SDS011;64831;44.870;37.336;2023-04-30T05:19:16;3.30;;;1.23;;
76103;SDS011;64831;44.870;37.336;2023-04-30T05:21:42;4.25;;;1.25;;
76103;SDS011;64831;44.870;37.336;2023-04-30T05:24:08;5.00;;;1.10;;
76103;SDS011;64831;44.870;37.336;2023-04-30T05:26:34;6.07;;;1.27;;
76103;SDS011;64831;44.870;37.336;2023-04-30T05:29:00;7.47;;;1.40;;
76103;SDS011;64831;44.870;37.336;2023-04-30T05:31:26;5.05;;;1.60;;
76103;SDS011;64831;44.870;37.336;2023-04-30T05:33:51;6.65;;;1.33;;
76103;SDS011;64831;44.870;37.336;2023-04-30T05:36:17;4.47;;;1.38;;
76103;SDS011;64831;44.870;37.336;2023-04-30T05:38:43;3.90;;;1.40;;
76103;SDS011;64831;44.870;37.336;2023-04-30T05:41:10;3.65;;;1.30;;
76103;SDS011;64831;44.870;37.336;2023-04-30T05:43:37;2.42;;;1.42;;
76103;SDS011;64831;44.870;37.336;2023-04-30T05:46:03;13.32;;;1.70;;
76103;SDS011;64831;44.870;37.336;2023-04-30T05:48:29;4.82;;;1.40;;
76103;SDS011;64831;44.870;37.336;2023-04-30T05:50:55;4.53;;;0.95;;
76103;SDS011;64831;44.870;37.336;2023-04-30T05:53:21;5.60;;;1.55;;
76103;SDS011;64831;44.870;37.336;2023-04-30T05:55:47;3.80;;;1.10;;
76103;SDS011;64831;44.870;37.336;2023-04-30T05:58:13;4.97;;;1.02;;
76103;SDS011;64831;44.870;37.336;2023-04-30T06:00:39;4.55;;;1.60;;
76103;SDS011;64831;44.870;37.336;2023-04-30T06:03:05;3.95;;;1.00;;
76103;SDS011;64831;44.870;37.336;2023-04-30T06:05:32;4.93;;;1.00;;
76103;SDS011;64831;44.870;37.336;2023-04-30T06:07:57;7.47;;;1.40;;
76103;SDS011;64831;44.870;37.336;2023-04-30T06:10:23;4.45;;;1.45;;
76103;SDS011;64831;44.870;37.336;2023-04-30T06:12:49;5.18;;;1.40;;
76103;SDS011;64831;44.870;37.336;2023-04-30T06:15:15;10.55;;;1.23;;
76103;SDS011;64831;44.870;37.336;2023-04-30T06:17:41;2.28;;;1.00;;
76103;SDS011;64831;44.870;37.336;2023-04-30T06:20:07;2.20;;;0.82;;
76103;SDS011;64831;44.870;37.336;2023-04-30T06:22:33;2.92;;;1.25;;
76103;SDS011;64831;44.870;37.336;2023-04-30T06:24:59;4.20;;;1.05;;
76103;SDS011;64831;44.870;37.336;2023-04-30T06:27:25;1.90;;;1.13;;
76103;SDS011;64831;44.870;37.336;2023-04-30T06:29:56;3.83;;;1.30;;
76103;SDS011;64831;44.870;37.336;2023-04-30T06:32:22;3.92;;;1.13;;
76103;SDS011;64831;44.870;37.336;2023-04-30T06:34:48;6.95;;;1.00;;
76103;SDS011;64831;44.870;37.336;2023-04-30T06:37:14;5.20;;;0.77;;
76103;SDS011;64831;44.870;37.336;2023-04-30T06:39:40;4.45;;;1.25;;
76103;SDS011;64831;44.870;37.336;2023-04-30T06:42:06;3.35;;;1.00;;
76103;SDS011;64831;44.870;37.336;2023-04-30T06:44:32;5.85;;;1.27;;
76103;SDS011;64831;44.870;37.336;2023-04-30T06:46:58;4.07;;;0.88;;
76103;SDS011;64831;44.870;37.336;2023-04-30T06:49:24;2.22;;;1.00;;
76103;SDS011;64831;44.870;37.336;2023-04-30T06:51:50;4.40;;;1.08;;
76103;SDS011;64831;44.870;37.336;2023-04-30T06:54:16;2.92;;;0.75;;
76103;SDS011;64831;44.870;37.336;2023-04-30T06:56:42;7.82;;;1.10;;
76103;SDS011;64831;44.870;37.336;2023-04-30T06:59:09;2.95;;;0.88;;
76103;SDS011;64831;44.870;37.336;2023-04-30T07:01:35;2.90;;;0.93;;
76103;SDS011;64831;44.870;37.336;2023-04-30T07:04:01;4.95;;;1.25;;
76103;SDS011;64831;44.870;37.336;2023-04-30T07:06:27;6.07;;;0.90;;
76103;SDS011;64831;44.870;37.336;2023-04-30T07:08:52;7.28;;;1.10;;
76103;SDS011;64831;44.870;37.336;2023-04-30T07:11:18;5.97;;;0.98;;
76103;SDS011;64831;44.870;37.336;2023-04-30T07:13:44;3.13;;;0.70;;
76103;SDS011;64831;44.870;37.336;2023-04-30T07:16:10;5.45;;;1.20;;
76103;SDS011;64831;44.870;37.336;2023-04-30T07:18:36;2.65;;;1.00;;
76103;SDS011;64831;44.870;37.336;2023-04-30T07:21:02;3.25;;;0.80;;
76103;SDS011;64831;44.870;37.336;2023-04-30T07:23:28;5.50;;;1.10;;
76103;SDS011;64831;44.870;37.336;2023-04-30T07:25:54;6.45;;;1.45;;
76103;SDS011;64831;44.870;37.336;2023-04-30T07:28:20;3.38;;;1.02;;
76103;SDS011;64831;44.870;37.336;2023-04-30T07:30:46;3.22;;;0.70;;
76103;SDS011;64831;44.870;37.336;2023-04-30T07:33:12;2.38;;;0.68;;
76103;SDS011;64831;44.870;37.336;2023-04-30T07:35:38;4.55;;;0.77;;
76103;SDS011;64831;44.870;37.336;2023-04-30T07:38:04;5.63;;;1.17;;
76103;SDS011;64831;44.870;37.336;2023-04-30T07:40:30;2.80;;;1.25;;
76103;SDS011;64831;44.870;37.336;2023-04-30T07:42:56;3.85;;;0.90;;
76103;SDS011;64831;44.870;37.336;2023-04-30T07:45:22;6.05;;;1.10;;
76103;SDS011;64831;44.870;37.336;2023-04-30T07:47:48;5.07;;;1.08;;
76103;SDS011;64831;44.870;37.336;2023-04-30T07:50:14;5.38;;;1.10;;
76103;SDS011;64831;44.870;37.336;2023-04-30T07:52:40;2.40;;;0.60;;
76103;SDS011;64831;44.870;37.336;2023-04-30T07:55:06;3.08;;;0.80;;
76103;SDS011;64831;44.870;37.336;2023-04-30T07:57:33;5.97;;;0.90;;
76103;SDS011;64831;44.870;37.336;2023-04-30T07:59:58;8.60;;;1.20;;
76103;SDS011;64831;44.870;37.336;2023-04-30T08:02:25;6.05;;;0.98;;
76103;SDS011;64831;44.870;37.336;2023-04-30T08:04:51;1.10;;;0.52;;
76103;SDS011;64831;44.870;37.336;2023-04-30T08:07:17;6.13;;;0.95;;
76103;SDS011;64831;44.870;37.336;2023-04-30T08:09:43;4.57;;;1.10;;
76103;SDS011;64831;44.870;37.336;2023-04-30T08:12:09;2.50;;;0.70;;
76103;SDS011;64831;44.870;37.336;2023-04-30T08:14:35;4.32;;;1.10;;
76103;SDS011;64831;44.870;37.336;2023-04-30T08:17:01;2.00;;;0.70;;
76103;SDS011;64831;44.870;37.336;2023-04-30T08:19:27;4.90;;;0.90;;
76103;SDS011;64831;44.870;37.336;2023-04-30T08:21:53;3.83;;;0.98;;
76103;SDS011;64831;44.870;37.336;2023-04-30T08:24:19;8.07;;;1.33;;
76103;SDS011;64831;44.870;37.336;2023-04-30T08:26:45;1.23;;;0.60;;
76103;SDS011;64831;44.870;37.336;2023-04-30T08:29:11;3.38;;;0.80;;
76103;SDS011;64831;44.870;37.336;2023-04-30T08:31:37;1.70;;;0.57;;
76103;SDS011;64831;44.870;37.336;2023-04-30T08:34:03;3.22;;;1.08;;
76103;SDS011;64831;44.870;37.336;2023-04-30T08:36:29;2.20;;;0.70;;
76103;SDS011;64831;44.870;37.336;2023-04-30T08:38:55;4.20;;;1.63;;
76103;SDS011;64831;44.870;37.336;2023-04-30T08:41:24;3.70;;;0.90;;
76103;SDS011;64831;44.870;37.336;2023-04-30T08:43:51;3.42;;;0.80;;
76103;SDS011;64831;44.870;37.336;2023-04-30T08:46:19;5.88;;;0.90;;
76103;SDS011;64831;44.870;37.336;2023-04-30T08:48:46;4.38;;;0.70;;
76103;SDS011;64831;44.870;37.336;2023-04-30T08:51:15;3.20;;;0.90;;
76103;SDS011;64831;44.870;37.336;2023-04-30T08:53:41;3.97;;;1.10;;
76103;SDS011;64831;44.870;37.336;2023-04-30T08:56:09;7.35;;;1.77;;
76103;SDS011;64831;44.870;37.336;2023-04-30T08:58:35;5.07;;;0.85;;
76103;SDS011;64831;44.870;37.336;2023-04-30T09:01:02;4.57;;;0.95;;
76103;SDS011;64831;44.870;37.336;2023-04-30T09:03:30;4.93;;;1.20;;
76103;SDS011;64831;44.870;37.336;2023-04-30T09:05:56;2.38;;;0.85;;
76103;SDS011;64831;44.870;37.336;2023-04-30T09:08:41;3.50;;;1.05;;
76103;SDS011;64831;44.870;37.336;2023-04-30T09:11:20;12.35;;;1.23;;
76103;SDS011;64831;44.870;37.336;2023-04-30T09:13:48;4.40;;;0.98;;
76103;SDS011;64831;44.870;37.336;2023-04-30T09:16:17;8.05;;;1.38;;
76103;SDS011;64831;44.870;37.336;2023-04-30T09:18:43;6.05;;;1.52;;
76103;SDS011;64831;44.870;37.336;2023-04-30T09:21:10;8.20;;;1.40;;
76103;SDS011;64831;44.870;37.336;2023-04-30T09:23:36;6.20;;;1.83;;
76103;SDS011;64831;44.870;37.336;2023-04-30T09:26:40;6.00;;;1.27;;
76103;SDS011;64831;44.870;37.336;2023-04-30T09:29:05;2.63;;;0.90;;
76103;SDS011;64831;44.870;37.336;2023-04-30T09:31:35;7.78;;;1.48;;
76103;SDS011;64831;44.870;37.336;2023-04-30T09:34:02;5.13;;;1.58;;
76103;SDS011;64831;44.870;37.336;2023-04-30T09:36:29;6.25;;;1.40;;
76103;SDS011;64831;44.870;37.336;2023-04-30T09:38:56;6.45;;;1.42;;
76103;SDS011;64831;44.870;37.336;2023-04-30T09:41:31;4.60;;;1.05;;
76103;SDS011;64831;44.870;37.336;2023-04-30T09:43:57;9.90;;;1.42;;
76103;SDS011;64831;44.870;37.336;2023-04-30T09:46:30;8.90;;;1.55;;
76103;SDS011;64831;44.870;37.336;2023-04-30T09:48:58;0.82;;;0.70;;
76103;SDS011;64831;44.870;37.336;2023-04-30T09:51:25;7.05;;;0.90;;
76103;SDS011;64831;44.870;37.336;2023-04-30T09:53:52;3.65;;;1.08;;
76103;SDS011;64831;44.870;37.336;2023-04-30T09:56:22;2.85;;;0.80;;
76103;SDS011;64831;44.870;37.336;2023-04-30T09:58:51;3.55;;;1.00;;
76103;SDS011;64831;44.870;37.336;2023-04-30T10:01:18;3.08;;;0.90;;
76103;SDS011;64831;44.870;37.336;2023-04-30T10:03:51;3.08;;;1.10;;
76103;SDS011;64831;44.870;37.336;2023-04-30T10:06:17;4.57;;;1.20;;
76103;SDS011;64831;44.870;37.336;2023-04-30T10:08:47;8.75;;;1.30;;
76103;SDS011;64831;44.870;37.336;2023-04-30T10:11:19;4.53;;;1.10;;
76103;SDS011;64831;44.870;37.336;2023-04-30T10:18:59;4.85;;;1.00;;
76103;SDS011;64831;44.870;37.336;2023-04-30T10:21:31;3.15;;;0.90;;
76103;SDS011;64831;44.870;37.336;2023-04-30T10:23:58;1.90;;;0.93;;
76103;SDS011;64831;44.870;37.336;2023-04-30T10:26:24;6.53;;;1.33;;
76103;SDS011;64831;44.870;37.336;2023-04-30T10:28:51;4.55;;;1.10;;
76103;SDS011;64831;44.870;37.336;2023-04-30T10:31:19;9.40;;;1.27;;
76103;SDS011;64831;44.870;37.336;2023-04-30T10:33:53;5.03;;;1.20;;
76103;SDS011;64831;44.870;37.336;2023-04-30T10:36:39;6.18;;;1.65;;
76103;SDS011;64831;44.870;37.336;2023-04-30T10:39:13;3.17;;;1.02;;
76103;SDS011;64831;44.870;37.336;2023-04-30T10:41:46;7.70;;;1.27;;
76103;SDS011;64831;44.870;37.336;2023-04-30T10:46:39;5.68;;;0.95;;
76103;SDS011;64831;44.870;37.336;2023-04-30T10:49:05;4.20;;;1.25;;
76103;SDS011;64831;44.870;37.336;2023-04-30T10:51:48;1.77;;;0.85;;
76103;SDS011;64831;44.870;37.336;2023-04-30T10:54:16;4.50;;;1.42;;
76103;SDS011;64831;44.870;37.336;2023-04-30T10:56:50;4.30;;;1.00;;
76103;SDS011;64831;44.870;37.336;2023-04-30T10:59:17;1.60;;;1.13;;
76103;SDS011;64831;44.870;37.336;2023-04-30T11:04:22;5.93;;;1.27;;
76103;SDS011;64831;44.870;37.336;2023-04-30T11:09:34;4.05;;;1.10;;
76103;SDS011;64831;44.870;37.336;2023-04-30T11:12:14;1.27;;;0.90;;
76103;SDS011;64831;44.870;37.336;2023-04-30T11:14:44;5.28;;;1.00;;
76103;SDS011;64831;44.870;37.336;2023-04-30T11:17:11;3.15;;;1.20;;
76103;SDS011;64831;44.870;37.336;2023-04-30T11:19:46;5.25;;;1.77;;
76103;SDS011;64831;44.870;37.336;2023-04-30T11:27:27;4.15;;;1.23;;
76103;SDS011;64831;44.870;37.336;2023-04-30T11:29:55;8.27;;;1.52;;
76103;SDS011;64831;44.870;37.336;2023-04-30T11:32:23;6.68;;;1.20;;
76103;SDS011;64831;44.870;37.336;2023-04-30T11:34:51;3.97;;;1.20;;
76103;SDS011;64831;44.870;37.336;2023-04-30T11:37:19;5.75;;;1.40;;
76103;SDS011;64831;44.870;37.336;2023-04-30T11:39:46;2.72;;;1.30;;
76103;SDS011;64831;44.870;37.336;2023-04-30T11:42:19;5.18;;;1.45;;
76103;SDS011;64831;44.870;37.336;2023-04-30T11:44:45;5.97;;;1.17;;
76103;SDS011;64831;44.870;37.336;2023-04-30T11:47:12;3.13;;;1.60;;
76103;SDS011;64831;44.870;37.336;2023-04-30T11:49:39;3.92;;;1.80;;
76103;SDS011;64831;44.870;37.336;2023-04-30T11:52:05;6.70;;;1.83;;
76103;SDS011;64831;44.870;37.336;2023-04-30T11:54:34;7.18;;;2.47;;
76103;SDS011;64831;44.870;37.336;2023-04-30T11:57:02;5.28;;;1.30;;
76103;SDS011;64831;44.870;37.336;2023-04-30T11:59:29;5.75;;;1.55;;
76103;SDS011;64831;44.870;37.336;2023-04-30T12:01:56;7.65;;;2.08;;
76103;SDS011;64831;44.870;37.336;2023-04-30T12:04:22;5.32;;;1.95;;
76103;SDS011;64831;44.870;37.336;2023-04-30T12:06:49;4.47;;;1.85;;
76103;SDS011;64831;44.870;37.336;2023-04-30T12:09:15;10.60;;;2.15;;
76103;SDS011;64831;44.870;37.336;2023-04-30T12:11:41;6.30;;;1.67;;
76103;SDS011;64831;44.870;37.336;2023-04-30T12:14:08;4.00;;;1.40;;
76103;SDS011;64831;44.870;37.336;2023-04-30T12:16:45;7.53;;;1.80;;
76103;SDS011;64831;44.870;37.336;2023-04-30T12:19:16;7.75;;;2.45;;
76103;SDS011;64831;44.870;37.336;2023-04-30T12:21:46;5.03;;;1.95;;
76103;SDS011;64831;44.870;37.336;2023-04-30T12:24:14;8.32;;;2.15;;
76103;SDS011;64831;44.870;37.336;2023-04-30T12:26:41;11.27;;;2.20;;
76103;SDS011;64831;44.870;37.336;2023-04-30T12:29:08;5.28;;;2.60;;
76103;SDS011;64831;44.870;37.336;2023-04-30T12:31:38;7.63;;;2.95;;
76103;SDS011;64831;44.870;37.336;2023-04-30T12:36:32;6.60;;;1.85;;
76103;SDS011;64831;44.870;37.336;2023-04-30T12:39:05;4.28;;;1.70;;
76103;SDS011;64831;44.870;37.336;2023-04-30T12:41:39;8.05;;;2.40;;
76103;SDS011;64831;44.870;37.336;2023-04-30T12:44:15;4.75;;;1.92;;
76103;SDS011;64831;44.870;37.336;2023-04-30T12:46:49;5.30;;;1.63;;
76103;SDS011;64831;44.870;37.336;2023-04-30T12:49:32;6.00;;;2.58;;
76103;SDS011;64831;44.870;37.336;2023-04-30T12:52:22;6.40;;;2.15;;
76103;SDS011;64831;44.870;37.336;2023-04-30T12:54:47;9.25;;;2.85;;
76103;SDS011;64831;44.870;37.336;2023-04-30T12:57:13;6.22;;;2.05;;
76103;SDS011;64831;44.870;37.336;2023-04-30T12:59:55;9.02;;;3.28;;
76103;SDS011;64831;44.870;37.336;2023-04-30T13:02:26;9.27;;;2.35;;
76103;SDS011;64831;44.870;37.336;2023-04-30T13:04:53;9.23;;;3.05;;
76103;SDS011;64831;44.870;37.336;2023-04-30T13:07:19;8.02;;;2.67;;
76103;SDS011;64831;44.870;37.336;2023-04-30T13:09:46;6.47;;;2.30;;
76103;SDS011;64831;44.870;37.336;2023-04-30T13:12:12;14.30;;;1.88;;
76103;SDS011;64831;44.870;37.336;2023-04-30T13:14:39;11.43;;;3.53;;
76103;SDS011;64831;44.870;37.336;2023-04-30T13:17:05;7.95;;;2.60;;
76103;SDS011;64831;44.870;37.336;2023-04-30T13:19:33;9.48;;;2.63;;
76103;SDS011;64831;44.870;37.336;2023-04-30T13:22:00;16.02;;;3.90;;
76103;SDS011;64831;44.870;37.336;2023-04-30T13:24:29;15.37;;;3.60;;
76103;SDS011;64831;44.870;37.336;2023-04-30T13:26:55;8.65;;;2.95;;
76103;SDS011;64831;44.870;37.336;2023-04-30T13:29:23;10.32;;;3.33;;
76103;SDS011;64831;44.870;37.336;2023-04-30T13:31:49;14.85;;;3.92;;
76103;SDS011;64831;44.870;37.336;2023-04-30T13:34:15;8.48;;;2.58;;
76103;SDS011;64831;44.870;37.336;2023-04-30T13:36:41;11.23;;;3.35;;
76103;SDS011;64831;44.870;37.336;2023-04-30T13:39:07;14.35;;;4.43;;
76103;SDS011;64831;44.870;37.336;2023-04-30T13:41:33;18.75;;;4.72;;
76103;SDS011;64831;44.870;37.336;2023-04-30T13:43:59;11.60;;;3.70;;
76103;SDS011;64831;44.870;37.336;2023-04-30T13:46:25;18.17;;;4.55;;
76103;SDS011;64831;44.870;37.336;2023-04-30T13:48:50;7.32;;;2.92;;
76103;SDS011;64831;44.870;37.336;2023-04-30T13:51:18;11.18;;;3.22;;
76103;SDS011;64831;44.870;37.336;2023-04-30T13:53:44;7.70;;;3.22;;
76103;SDS011;64831;44.870;37.336;2023-04-30T13:56:10;9.93;;;3.20;;
76103;SDS011;64831;44.870;37.336;2023-04-30T13:58:36;14.77;;;3.20;;
76103;SDS011;64831;44.870;37.336;2023-04-30T14:01:02;9.20;;;2.72;;
76103;SDS011;64831;44.870;37.336;2023-04-30T14:03:29;12.88;;;3.33;;
76103;SDS011;64831;44.870;37.336;2023-04-30T14:05:55;8.32;;;3.38;;
76103;SDS011;64831;44.870;37.336;2023-04-30T14:08:22;24.80;;;5.07;;
76103;SDS011;64831;44.870;37.336;2023-04-30T14:10:48;15.18;;;3.72;;
76103;SDS011;64831;44.870;37.336;2023-04-30T14:13:14;12.75;;;3.33;;
76103;SDS011;64831;44.870;37.336;2023-04-30T14:15:40;6.53;;;2.88;;
76103;SDS011;64831;44.870;37.336;2023-04-30T14:18:06;11.45;;;3.17;;
76103;SDS011;64831;44.870;37.336;2023-04-30T14:20:31;17.50;;;3.80;;
76103;SDS011;64831;44.870;37.336;2023-04-30T14:22:57;16.08;;;3.50;;
76103;SDS011;64831;44.870;37.336;2023-04-30T14:25:23;22.23;;;6.63;;
76103;SDS011;64831;44.870;37.336;2023-04-30T14:27:49;10.73;;;3.38;;
76103;SDS011;64831;44.870;37.336;2023-04-30T14:30:15;11.15;;;2.92;;
76103;SDS011;64831;44.870;37.336;2023-04-30T14:32:41;6.18;;;2.22;;
76103;SDS011;64831;44.870;37.336;2023-04-30T14:35:07;8.07;;;2.42;;
76103;SDS011;64831;44.870;37.336;2023-04-30T14:37:33;9.02;;;2.47;;
76103;SDS011;64831;44.870;37.336;2023-04-30T14:39:59;8.52;;;2.60;;
76103;SDS011;64831;44.870;37.336;2023-04-30T14:42:26;13.65;;;3.42;;
76103;SDS011;64831;44.870;37.336;2023-04-30T14:44:52;11.75;;;3.30;;
76103;SDS011;64831;44.870;37.336;2023-04-30T14:47:18;15.40;;;5.13;;
76103;SDS011;64831;44.870;37.336;2023-04-30T14:49:45;14.05;;;4.00;;
76103;SDS011;64831;44.870;37.336;2023-04-30T14:52:12;12.05;;;2.95;;
76103;SDS011;64831;44.870;37.336;2023-04-30T14:54:38;11.30;;;3.63;;
76103;SDS011;64831;44.870;37.336;2023-04-30T14:57:05;13.02;;;3.25;;
76103;SDS011;64831;44.870;37.336;2023-04-30T14:59:31;14.13;;;3.72;;
76103;SDS011;64831;44.870;37.336;2023-04-30T15:01:59;14.40;;;4.32;;
76103;SDS011;64831;44.870;37.336;2023-04-30T15:04:25;20.40;;;4.85;;
76103;SDS011;64831;44.870;37.336;2023-04-30T15:06:50;11.73;;;3.10;;
76103;SDS011;64831;44.870;37.336;2023-04-30T15:09:16;10.02;;;3.55;;
76103;SDS011;64831;44.870;37.336;2023-04-30T15:11:42;13.23;;;3.15;;